East Helena, Montana
Current Conditions -  °F | °C
As of 2:53 AM on Sunday 23 Nov 2014 (Local Time) from KHLN Reporting Station
Clear Clear  
Wind Chill: 24°   Ceiling: Unl
Heat Index: 32°   Visibility: 10mi
Dew Point: 24°   Wind: 9mph
Humidity: 73%   Direction: 240°WSW
Pressure: 29.85"   Gusts: NA
Location:  46.59°N, 111.92°W
Report Text: KHLN 230953Z AUTO 24008KT 210V300 10SM CLR 00/M04 A2985 RMK AO2 PK WND 27028/0858 PRESRR SLP140 T00001044
Loading
Personal Weather Stations






























Interactive Weather Map New forecast layout! Learn more

10-Day Weather Forecast

Advertisements
Track Severe Weather on mobile